sensor_id;sensor_type;location;lat;lon;timestamp;P1;durP1;ratioP1;P2;durP2;ratioP2
21611;SDS011;47005;52.292;13.452;2022-09-27T00:02:12;2.77;;;1.67;;
21611;SDS011;47005;52.292;13.452;2022-09-27T00:04:37;3.07;;;1.53;;
21611;SDS011;47005;52.292;13.452;2022-09-27T00:07:03;2.93;;;1.53;;
21611;SDS011;47005;52.292;13.452;2022-09-27T00:09:28;3.10;;;1.67;;
21611;SDS011;47005;52.292;13.452;2022-09-27T00:11:54;2.77;;;1.50;;
21611;SDS011;47005;52.292;13.452;2022-09-27T00:14:19;2.07;;;1.30;;
21611;SDS011;47005;52.292;13.452;2022-09-27T00:16:45;4.43;;;1.47;;
21611;SDS011;47005;52.292;13.452;2022-09-27T00:19:12;2.27;;;1.10;;
21611;SDS011;47005;52.292;13.452;2022-09-27T00:21:40;1.83;;;1.10;;
21611;SDS011;47005;52.292;13.452;2022-09-27T00:24:10;2.85;;;1.60;;
21611;SDS011;47005;52.292;13.452;2022-09-27T00:26:40;2.20;;;1.40;;
21611;SDS011;47005;52.292;13.452;2022-09-27T00:29:06;6.40;;;1.70;;
21611;SDS011;47005;52.292;13.452;2022-09-27T00:31:34;2.83;;;1.42;;
21611;SDS011;47005;52.292;13.452;2022-09-27T00:34:01;5.43;;;1.50;;
21611;SDS011;47005;52.292;13.452;2022-09-27T00:36:27;3.07;;;1.43;;
21611;SDS011;47005;52.292;13.452;2022-09-27T00:38:54;3.57;;;1.40;;
21611;SDS011;47005;52.292;13.452;2022-09-27T00:41:53;1.93;;;1.00;;
21611;SDS011;47005;52.292;13.452;2022-09-27T00:46:50;1.50;;;1.00;;
21611;SDS011;47005;52.292;13.452;2022-09-27T00:49:26;4.33;;;1.20;;
21611;SDS011;47005;52.292;13.452;2022-09-27T00:52:20;4.75;;;1.10;;
21611;SDS011;47005;52.292;13.452;2022-09-27T00:55:07;1.80;;;1.10;;
21611;SDS011;47005;52.292;13.452;2022-09-27T00:57:38;1.87;;;1.20;;
21611;SDS011;47005;52.292;13.452;2022-09-27T01:00:06;4.60;;;1.70;;
21611;SDS011;47005;52.292;13.452;2022-09-27T01:02:37;2.10;;;1.10;;
21611;SDS011;47005;52.292;13.452;2022-09-27T01:05:05;2.57;;;1.10;;
21611;SDS011;47005;52.292;13.452;2022-09-27T01:07:33;3.17;;;1.60;;
21611;SDS011;47005;52.292;13.452;2022-09-27T01:09:59;2.13;;;1.40;;
21611;SDS011;47005;52.292;13.452;2022-09-27T01:15:28;1.52;;;1.23;;
21611;SDS011;47005;52.292;13.452;2022-09-27T01:18:12;3.30;;;1.90;;
21611;SDS011;47005;52.292;13.452;2022-09-27T01:26:45;2.20;;;1.40;;
21611;SDS011;47005;52.292;13.452;2022-09-27T01:35:09;2.50;;;1.33;;
21611;SDS011;47005;52.292;13.452;2022-09-27T01:38:10;3.43;;;1.47;;
21611;SDS011;47005;52.292;13.452;2022-09-27T01:43:51;1.73;;;0.77;;
21611;SDS011;47005;52.292;13.452;2022-09-27T01:46:11;2.57;;;1.57;;
21611;SDS011;47005;52.292;13.452;2022-09-27T01:49:19;4.18;;;1.65;;
21611;SDS011;47005;52.292;13.452;2022-09-27T01:51:51;2.03;;;1.20;;
21611;SDS011;47005;52.292;13.452;2022-09-27T01:54:25;5.03;;;1.57;;
21611;SDS011;47005;52.292;13.452;2022-09-27T01:56:56;5.10;;;1.67;;
21611;SDS011;47005;52.292;13.452;2022-09-27T01:59:26;3.42;;;1.50;;
21611;SDS011;47005;52.292;13.452;2022-09-27T02:01:53;3.85;;;1.58;;
21611;SDS011;47005;52.292;13.452;2022-09-27T02:04:24;2.88;;;1.10;;
21611;SDS011;47005;52.292;13.452;2022-09-27T02:06:56;1.65;;;0.90;;
21611;SDS011;47005;52.292;13.452;2022-09-27T02:09:34;3.47;;;1.65;;
21611;SDS011;47005;52.292;13.452;2022-09-27T02:12:10;1.52;;;1.10;;
21611;SDS011;47005;52.292;13.452;2022-09-27T02:23:17;1.73;;;0.80;;
21611;SDS011;47005;52.292;13.452;2022-09-27T02:25:53;2.80;;;1.00;;
21611;SDS011;47005;52.292;13.452;2022-09-27T02:31:26;1.33;;;0.80;;
21611;SDS011;47005;52.292;13.452;2022-09-27T02:33:53;6.15;;;1.42;;
21611;SDS011;47005;52.292;13.452;2022-09-27T02:36:32;2.53;;;1.05;;
21611;SDS011;47005;52.292;13.452;2022-09-27T02:38:58;2.00;;;1.27;;
21611;SDS011;47005;52.292;13.452;2022-09-27T02:41:25;2.50;;;1.30;;
21611;SDS011;47005;52.292;13.452;2022-09-27T02:43:54;2.53;;;1.10;;
21611;SDS011;47005;52.292;13.452;2022-09-27T02:52:26;1.77;;;1.10;;
21611;SDS011;47005;52.292;13.452;2022-09-27T03:00:29;2.38;;;1.17;;
21611;SDS011;47005;52.292;13.452;2022-09-27T03:05:26;2.72;;;1.65;;
21611;SDS011;47005;52.292;13.452;2022-09-27T03:07:56;3.33;;;1.77;;
21611;SDS011;47005;52.292;13.452;2022-09-27T03:10:22;2.43;;;1.70;;
21611;SDS011;47005;52.292;13.452;2022-09-27T03:12:50;6.77;;;1.40;;
21611;SDS011;47005;52.292;13.452;2022-09-27T03:15:17;2.23;;;1.30;;
21611;SDS011;47005;52.292;13.452;2022-09-27T03:17:42;1.60;;;1.25;;
21611;SDS011;47005;52.292;13.452;2022-09-27T03:20:08;3.75;;;2.10;;
21611;SDS011;47005;52.292;13.452;2022-09-27T03:22:34;4.95;;;1.80;;
21611;SDS011;47005;52.292;13.452;2022-09-27T03:25:02;4.50;;;2.00;;
21611;SDS011;47005;52.292;13.452;2022-09-27T03:27:29;2.97;;;1.90;;
21611;SDS011;47005;52.292;13.452;2022-09-27T03:29:54;4.43;;;1.60;;
21611;SDS011;47005;52.292;13.452;2022-09-27T03:32:20;2.63;;;1.80;;
21611;SDS011;47005;52.292;13.452;2022-09-27T03:34:46;5.13;;;1.38;;
21611;SDS011;47005;52.292;13.452;2022-09-27T03:37:11;2.63;;;1.67;;
21611;SDS011;47005;52.292;13.452;2022-09-27T03:39:37;4.20;;;1.30;;
21611;SDS011;47005;52.292;13.452;2022-09-27T03:42:02;2.47;;;1.20;;
21611;SDS011;47005;52.292;13.452;2022-09-27T03:44:28;5.70;;;1.60;;
21611;SDS011;47005;52.292;13.452;2022-09-27T03:46:53;2.60;;;1.83;;
21611;SDS011;47005;52.292;13.452;2022-09-27T03:49:19;1.80;;;1.38;;
21611;SDS011;47005;52.292;13.452;2022-09-27T03:51:45;9.67;;;1.63;;
21611;SDS011;47005;52.292;13.452;2022-09-27T03:54:10;2.93;;;1.43;;
21611;SDS011;47005;52.292;13.452;2022-09-27T03:56:36;2.70;;;1.42;;
21611;SDS011;47005;52.292;13.452;2022-09-27T03:59:01;3.88;;;1.50;;
21611;SDS011;47005;52.292;13.452;2022-09-27T04:01:27;3.37;;;1.40;;
21611;SDS011;47005;52.292;13.452;2022-09-27T04:03:53;2.27;;;1.40;;
21611;SDS011;47005;52.292;13.452;2022-09-27T04:06:18;4.00;;;1.67;;
21611;SDS011;47005;52.292;13.452;2022-09-27T04:08:44;3.10;;;1.50;;
21611;SDS011;47005;52.292;13.452;2022-09-27T04:11:11;3.42;;;2.10;;
21611;SDS011;47005;52.292;13.452;2022-09-27T04:13:37;2.10;;;1.33;;
21611;SDS011;47005;52.292;13.452;2022-09-27T04:16:03;3.37;;;1.23;;
21611;SDS011;47005;52.292;13.452;2022-09-27T04:18:29;6.00;;;1.83;;
21611;SDS011;47005;52.292;13.452;2022-09-27T04:20:54;4.27;;;1.77;;
21611;SDS011;47005;52.292;13.452;2022-09-27T04:23:20;3.95;;;1.80;;
21611;SDS011;47005;52.292;13.452;2022-09-27T04:25:46;2.67;;;1.40;;
21611;SDS011;47005;52.292;13.452;2022-09-27T04:28:11;2.42;;;1.55;;
21611;SDS011;47005;52.292;13.452;2022-09-27T04:30:37;9.05;;;1.63;;
21611;SDS011;47005;52.292;13.452;2022-09-27T04:33:03;2.97;;;1.45;;
21611;SDS011;47005;52.292;13.452;2022-09-27T04:35:29;4.78;;;1.55;;
21611;SDS011;47005;52.292;13.452;2022-09-27T04:38:13;2.33;;;1.50;;
21611;SDS011;47005;52.292;13.452;2022-09-27T04:40:39;2.30;;;1.23;;
21611;SDS011;47005;52.292;13.452;2022-09-27T04:43:05;4.83;;;2.03;;
21611;SDS011;47005;52.292;13.452;2022-09-27T04:45:31;6.10;;;2.92;;
21611;SDS011;47005;52.292;13.452;2022-09-27T04:47:57;2.13;;;1.30;;
21611;SDS011;47005;52.292;13.452;2022-09-27T04:50:22;1.98;;;1.13;;
21611;SDS011;47005;52.292;13.452;2022-09-27T04:52:49;4.23;;;1.57;;
21611;SDS011;47005;52.292;13.452;2022-09-27T04:55:16;4.03;;;1.50;;
21611;SDS011;47005;52.292;13.452;2022-09-27T04:57:42;2.43;;;1.30;;
21611;SDS011;47005;52.292;13.452;2022-09-27T05:00:08;1.63;;;1.17;;
21611;SDS011;47005;52.292;13.452;2022-09-27T05:02:34;2.47;;;1.47;;
21611;SDS011;47005;52.292;13.452;2022-09-27T05:04:59;2.47;;;1.30;;
21611;SDS011;47005;52.292;13.452;2022-09-27T05:07:25;2.07;;;1.27;;
21611;SDS011;47005;52.292;13.452;2022-09-27T05:09:51;1.70;;;1.13;;
21611;SDS011;47005;52.292;13.452;2022-09-27T05:12:18;3.07;;;1.47;;
21611;SDS011;47005;52.292;13.452;2022-09-27T05:14:44;4.72;;;1.65;;
21611;SDS011;47005;52.292;13.452;2022-09-27T05:17:09;2.80;;;1.43;;
21611;SDS011;47005;52.292;13.452;2022-09-27T05:19:35;3.80;;;1.60;;
21611;SDS011;47005;52.292;13.452;2022-09-27T05:22:03;2.13;;;1.33;;
21611;SDS011;47005;52.292;13.452;2022-09-27T05:24:30;2.33;;;1.20;;
21611;SDS011;47005;52.292;13.452;2022-09-27T05:26:57;2.63;;;1.60;;
21611;SDS011;47005;52.292;13.452;2022-09-27T05:29:23;1.87;;;1.00;;
21611;SDS011;47005;52.292;13.452;2022-09-27T05:31:49;3.27;;;1.83;;
21611;SDS011;47005;52.292;13.452;2022-09-27T05:34:15;3.30;;;1.10;;
21611;SDS011;47005;52.292;13.452;2022-09-27T05:36:45;2.15;;;1.45;;
21611;SDS011;47005;52.292;13.452;2022-09-27T05:39:12;2.50;;;1.20;;
21611;SDS011;47005;52.292;13.452;2022-09-27T05:41:40;2.67;;;1.50;;
21611;SDS011;47005;52.292;13.452;2022-09-27T05:44:06;2.77;;;1.47;;
21611;SDS011;47005;52.292;13.452;2022-09-27T05:46:32;5.80;;;1.60;;
21611;SDS011;47005;52.292;13.452;2022-09-27T05:48:57;3.40;;;1.37;;
21611;SDS011;47005;52.292;13.452;2022-09-27T05:51:23;2.37;;;1.27;;
21611;SDS011;47005;52.292;13.452;2022-09-27T05:53:49;7.28;;;1.73;;
21611;SDS011;47005;52.292;13.452;2022-09-27T05:56:14;3.47;;;1.80;;
21611;SDS011;47005;52.292;13.452;2022-09-27T05:58:41;3.10;;;1.43;;
21611;SDS011;47005;52.292;13.452;2022-09-27T06:01:07;4.55;;;1.92;;
21611;SDS011;47005;52.292;13.452;2022-09-27T06:03:34;3.30;;;1.60;;
21611;SDS011;47005;52.292;13.452;2022-09-27T06:06:00;2.47;;;1.77;;
21611;SDS011;47005;52.292;13.452;2022-09-27T06:08:48;4.77;;;2.10;;
21611;SDS011;47005;52.292;13.452;2022-09-27T06:11:14;3.00;;;1.73;;
21611;SDS011;47005;52.292;13.452;2022-09-27T06:13:40;4.10;;;2.27;;
21611;SDS011;47005;52.292;13.452;2022-09-27T06:16:06;4.53;;;2.37;;
21611;SDS011;47005;52.292;13.452;2022-09-27T06:18:34;4.83;;;2.57;;
21611;SDS011;47005;52.292;13.452;2022-09-27T06:21:00;4.17;;;2.07;;
21611;SDS011;47005;52.292;13.452;2022-09-27T06:23:27;3.50;;;2.20;;
21611;SDS011;47005;52.292;13.452;2022-09-27T06:25:54;3.30;;;2.10;;
21611;SDS011;47005;52.292;13.452;2022-09-27T06:28:20;5.23;;;1.87;;
21611;SDS011;47005;52.292;13.452;2022-09-27T06:30:46;6.33;;;2.90;;
21611;SDS011;47005;52.292;13.452;2022-09-27T06:33:17;7.03;;;2.70;;
21611;SDS011;47005;52.292;13.452;2022-09-27T06:35:44;2.93;;;1.90;;
21611;SDS011;47005;52.292;13.452;2022-09-27T06:38:11;2.90;;;1.87;;
21611;SDS011;47005;52.292;13.452;2022-09-27T06:40:38;3.83;;;2.23;;
21611;SDS011;47005;52.292;13.452;2022-09-27T06:43:08;4.27;;;2.50;;
21611;SDS011;47005;52.292;13.452;2022-09-27T06:45:34;6.53;;;2.53;;
21611;SDS011;47005;52.292;13.452;2022-09-27T06:48:04;3.97;;;2.60;;
21611;SDS011;47005;52.292;13.452;2022-09-27T06:50:34;3.27;;;2.07;;
21611;SDS011;47005;52.292;13.452;2022-09-27T06:53:01;3.93;;;2.37;;
21611;SDS011;47005;52.292;13.452;2022-09-27T06:55:28;3.40;;;2.07;;
21611;SDS011;47005;52.292;13.452;2022-09-27T06:57:57;4.57;;;2.40;;
21611;SDS011;47005;52.292;13.452;2022-09-27T07:00:43;3.87;;;2.30;;
21611;SDS011;47005;52.292;13.452;2022-09-27T07:03:10;2.85;;;1.98;;
21611;SDS011;47005;52.292;13.452;2022-09-27T07:05:37;7.20;;;1.77;;
21611;SDS011;47005;52.292;13.452;2022-09-27T07:08:03;3.17;;;2.03;;
21611;SDS011;47005;52.292;13.452;2022-09-27T07:10:30;2.47;;;1.70;;
21611;SDS011;47005;52.292;13.452;2022-09-27T07:15:32;2.97;;;1.80;;
21611;SDS011;47005;52.292;13.452;2022-09-27T07:18:06;6.70;;;1.70;;
21611;SDS011;47005;52.292;13.452;2022-09-27T07:20:33;3.10;;;1.73;;
21611;SDS011;47005;52.292;13.452;2022-09-27T07:23:01;2.77;;;1.33;;
21611;SDS011;47005;52.292;13.452;2022-09-27T07:25:28;2.67;;;1.50;;
21611;SDS011;47005;52.292;13.452;2022-09-27T07:27:54;3.17;;;1.77;;
21611;SDS011;47005;52.292;13.452;2022-09-27T07:30:28;2.30;;;1.57;;
21611;SDS011;47005;52.292;13.452;2022-09-27T07:32:58;3.27;;;1.80;;
21611;SDS011;47005;52.292;13.452;2022-09-27T07:35:25;3.00;;;1.60;;
21611;SDS011;47005;52.292;13.452;2022-09-27T07:37:52;2.63;;;1.23;;
21611;SDS011;47005;52.292;13.452;2022-09-27T07:40:17;3.47;;;2.00;;
21611;SDS011;47005;52.292;13.452;2022-09-27T07:42:44;3.03;;;1.70;;
21611;SDS011;47005;52.292;13.452;2022-09-27T07:45:09;1.93;;;1.27;;
21611;SDS011;47005;52.292;13.452;2022-09-27T07:47:39;2.47;;;1.40;;
21611;SDS011;47005;52.292;13.452;2022-09-27T07:50:06;3.20;;;1.77;;
21611;SDS011;47005;52.292;13.452;2022-09-27T07:52:39;6.37;;;2.20;;
21611;SDS011;47005;52.292;13.452;2022-09-27T07:55:06;6.30;;;2.20;;
21611;SDS011;47005;52.292;13.452;2022-09-27T07:57:33;3.67;;;2.20;;
21611;SDS011;47005;52.292;13.452;2022-09-27T07:59:59;4.63;;;2.10;;
21611;SDS011;47005;52.292;13.452;2022-09-27T08:02:24;7.70;;;2.73;;
21611;SDS011;47005;52.292;13.452;2022-09-27T08:04:50;3.83;;;2.47;;
21611;SDS011;47005;52.292;13.452;2022-09-27T08:07:17;4.77;;;2.03;;
21611;SDS011;47005;52.292;13.452;2022-09-27T08:09:42;2.83;;;1.60;;
21611;SDS011;47005;52.292;13.452;2022-09-27T08:12:08;3.60;;;1.90;;
21611;SDS011;47005;52.292;13.452;2022-09-27T08:14:34;3.60;;;2.20;;
21611;SDS011;47005;52.292;13.452;2022-09-27T08:17:00;4.33;;;2.00;;
21611;SDS011;47005;52.292;13.452;2022-09-27T08:19:25;1.90;;;1.33;;
21611;SDS011;47005;52.292;13.452;2022-09-27T08:21:51;5.20;;;1.93;;
21611;SDS011;47005;52.292;13.452;2022-09-27T08:24:20;3.13;;;1.85;;
21611;SDS011;47005;52.292;13.452;2022-09-27T08:26:46;3.38;;;1.98;;
21611;SDS011;47005;52.292;13.452;2022-09-27T08:29:12;2.78;;;1.70;;
21611;SDS011;47005;52.292;13.452;2022-09-27T08:31:37;5.50;;;1.80;;
21611;SDS011;47005;52.292;13.452;2022-09-27T08:34:03;4.27;;;1.67;;
21611;SDS011;47005;52.292;13.452;2022-09-27T08:36:29;3.25;;;2.00;;
21611;SDS011;47005;52.292;13.452;2022-09-27T08:38:55;3.88;;;1.42;;
21611;SDS011;47005;52.292;13.452;2022-09-27T08:41:40;4.10;;;2.10;;
21611;SDS011;47005;52.292;13.452;2022-09-27T08:47:00;2.92;;;1.52;;
21611;SDS011;47005;52.292;13.452;2022-09-27T08:52:06;2.85;;;1.75;;
21611;SDS011;47005;52.292;13.452;2022-09-27T08:54:37;3.03;;;1.85;;
21611;SDS011;47005;52.292;13.452;2022-09-27T08:57:05;4.70;;;2.15;;
21611;SDS011;47005;52.292;13.452;2022-09-27T08:59:38;2.95;;;2.00;;
21611;SDS011;47005;52.292;13.452;2022-09-27T09:02:12;3.33;;;1.67;;
21611;SDS011;47005;52.292;13.452;2022-09-27T09:04:43;4.30;;;1.77;;
21611;SDS011;47005;52.292;13.452;2022-09-27T09:12:52;3.30;;;1.83;;
21611;SDS011;47005;52.292;13.452;2022-09-27T09:15:28;2.63;;;1.20;;
21611;SDS011;47005;52.292;13.452;2022-09-27T09:21:21;2.72;;;1.75;;
21611;SDS011;47005;52.292;13.452;2022-09-27T09:24:16;4.75;;;1.67;;
21611;SDS011;47005;52.292;13.452;2022-09-27T09:30:19;1.98;;;1.48;;
21611;SDS011;47005;52.292;13.452;2022-09-27T09:33:04;2.55;;;1.42;;
21611;SDS011;47005;52.292;13.452;2022-09-27T09:38:13;2.90;;;1.58;;
21611;SDS011;47005;52.292;13.452;2022-09-27T09:40:46;2.97;;;1.17;;
21611;SDS011;47005;52.292;13.452;2022-09-27T09:43:17;2.67;;;1.42;;
21611;SDS011;47005;52.292;13.452;2022-09-27T09:45:54;2.72;;;1.52;;
21611;SDS011;47005;52.292;13.452;2022-09-27T09:48:38;2.40;;;1.05;;
21611;SDS011;47005;52.292;13.452;2022-09-27T09:51:21;2.30;;;1.48;;
21611;SDS011;47005;52.292;13.452;2022-09-27T09:53:57;4.82;;;1.90;;
21611;SDS011;47005;52.292;13.452;2022-09-27T09:56:46;2.28;;;1.38;;
21611;SDS011;47005;52.292;13.452;2022-09-27T09:59:18;1.80;;;1.30;;
21611;SDS011;47005;52.292;13.452;2022-09-27T10:02:00;2.83;;;1.70;;
21611;SDS011;47005;52.292;13.452;2022-09-27T10:04:45;2.33;;;1.58;;
21611;SDS011;47005;52.292;13.452;2022-09-27T10:07:10;1.92;;;1.42;;
21611;SDS011;47005;52.292;13.452;2022-09-27T10:09:37;2.35;;;1.42;;
21611;SDS011;47005;52.292;13.452;2022-09-27T10:12:04;2.55;;;1.67;;
21611;SDS011;47005;52.292;13.452;2022-09-27T10:14:29;2.28;;;1.60;;
21611;SDS011;47005;52.292;13.452;2022-09-27T10:16:58;4.18;;;1.77;;
21611;SDS011;47005;52.292;13.452;2022-09-27T10:19:28;3.35;;;1.83;;
21611;SDS011;47005;52.292;13.452;2022-09-27T10:22:00;4.07;;;1.63;;
21611;SDS011;47005;52.292;13.452;2022-09-27T10:24:55;4.53;;;1.40;;
21611;SDS011;47005;52.292;13.452;2022-09-27T10:27:36;2.63;;;1.83;;
21611;SDS011;47005;52.292;13.452;2022-09-27T10:30:04;2.53;;;1.77;;
21611;SDS011;47005;52.292;13.452;2022-09-27T10:32:31;3.67;;;2.10;;
21611;SDS011;47005;52.292;13.452;2022-09-27T10:40:41;3.08;;;1.77;;
21611;SDS011;47005;52.292;13.452;2022-09-27T10:46:21;2.10;;;1.55;;
21611;SDS011;47005;52.292;13.452;2022-09-27T10:48:43;2.40;;;1.88;;
21611;SDS011;47005;52.292;13.452;2022-09-27T10:51:21;1.98;;;1.65;;
21611;SDS011;47005;52.292;13.452;2022-09-27T10:53:53;3.63;;;1.50;;
21611;SDS011;47005;52.292;13.452;2022-09-27T10:56:30;2.88;;;1.52;;
21611;SDS011;47005;52.292;13.452;2022-09-27T10:58:58;4.50;;;1.80;;
21611;SDS011;47005;52.292;13.452;2022-09-27T11:01:25;3.42;;;2.13;;
21611;SDS011;47005;52.292;13.452;2022-09-27T11:04:02;3.03;;;1.95;;
21611;SDS011;47005;52.292;13.452;2022-09-27T11:06:29;3.55;;;1.70;;
21611;SDS011;47005;52.292;13.452;2022-09-27T11:11:50;2.40;;;1.45;;
21611;SDS011;47005;52.292;13.452;2022-09-27T11:14:33;3.30;;;1.75;;
21611;SDS011;47005;52.292;13.452;2022-09-27T11:24:53;2.33;;;1.73;;
21611;SDS011;47005;52.292;13.452;2022-09-27T11:30:19;1.88;;;1.38;;
21611;SDS011;47005;52.292;13.452;2022-09-27T11:32:50;2.47;;;1.60;;
21611;SDS011;47005;52.292;13.452;2022-09-27T11:38:30;2.22;;;1.60;;
21611;SDS011;47005;52.292;13.452;2022-09-27T11:41:13;4.75;;;1.50;;
21611;SDS011;47005;52.292;13.452;2022-09-27T11:46:33;1.45;;;0.93;;
21611;SDS011;47005;52.292;13.452;2022-09-27T11:54:58;2.28;;;0.90;;
21611;SDS011;47005;52.292;13.452;2022-09-27T12:00:24;1.50;;;0.70;;
21611;SDS011;47005;52.292;13.452;2022-09-27T12:03:38;1.07;;;0.67;;
21611;SDS011;47005;52.292;13.452;2022-09-27T12:06:15;1.27;;;0.77;;
21611;SDS011;47005;52.292;13.452;2022-09-27T12:14:15;3.23;;;0.80;;
21611;SDS011;47005;52.292;13.452;2022-09-27T12:16:59;4.93;;;1.43;;
21611;SDS011;47005;52.292;13.452;2022-09-27T12:19:34;1.83;;;0.90;;
21611;SDS011;47005;52.292;13.452;2022-09-27T12:22:04;1.23;;;0.80;;
21611;SDS011;47005;52.292;13.452;2022-09-27T12:24:32;2.27;;;1.10;;
21611;SDS011;47005;52.292;13.452;2022-09-27T12:26:59;4.47;;;1.00;;
21611;SDS011;47005;52.292;13.452;2022-09-27T12:29:33;4.53;;;1.00;;
21611;SDS011;47005;52.292;13.452;2022-09-27T12:33:05;1.60;;;0.97;;
21611;SDS011;47005;52.292;13.452;2022-09-27T12:35:13;1.43;;;0.87;;
21611;SDS011;47005;52.292;13.452;2022-09-27T12:40:35;2.57;;;1.07;;
21611;SDS011;47005;52.292;13.452;2022-09-27T12:45:44;1.93;;;1.10;;
21611;SDS011;47005;52.292;13.452;2022-09-27T12:51:10;1.55;;;1.00;;
21611;SDS011;47005;52.292;13.452;2022-09-27T12:53:42;2.60;;;1.20;;
21611;SDS011;47005;52.292;13.452;2022-09-27T13:05:16;1.47;;;0.97;;
21611;SDS011;47005;52.292;13.452;2022-09-27T13:13:40;1.43;;;0.90;;
21611;SDS011;47005;52.292;13.452;2022-09-27T13:16:07;4.73;;;1.10;;
21611;SDS011;47005;52.292;13.452;2022-09-27T13:21:00;1.20;;;0.95;;
21611;SDS011;47005;52.292;13.452;2022-09-27T13:30:55;1.93;;;1.00;;
21611;SDS011;47005;52.292;13.452;2022-09-27T13:33:29;1.77;;;1.40;;
21611;SDS011;47005;52.292;13.452;2022-09-27T13:42:11;2.27;;;1.00;;
21611;SDS011;47005;52.292;13.452;2022-09-27T13:49:52;2.13;;;1.10;;
21611;SDS011;47005;52.292;13.452;2022-09-27T13:52:38;2.00;;;1.13;;
21611;SDS011;47005;52.292;13.452;2022-09-27T13:58:04;1.40;;;1.00;;
21611;SDS011;47005;52.292;13.452;2022-09-27T14:00:49;1.50;;;1.00;;
21611;SDS011;47005;52.292;13.452;2022-09-27T14:03:36;1.65;;;1.00;;
21611;SDS011;47005;52.292;13.452;2022-09-27T14:06:14;2.17;;;1.50;;
21611;SDS011;47005;52.292;13.452;2022-09-27T14:08:51;2.23;;;1.20;;
21611;SDS011;47005;52.292;13.452;2022-09-27T14:11:23;2.38;;;1.30;;
21611;SDS011;47005;52.292;13.452;2022-09-27T14:14:02;2.50;;;1.20;;
21611;SDS011;47005;52.292;13.452;2022-09-27T14:16:30;1.75;;;1.10;;
21611;SDS011;47005;52.292;13.452;2022-09-27T14:18:58;2.53;;;1.20;;
21611;SDS011;47005;52.292;13.452;2022-09-27T14:21:30;2.72;;;1.15;;
21611;SDS011;47005;52.292;13.452;2022-09-27T14:24:20;1.80;;;1.05;;
21611;SDS011;47005;52.292;13.452;2022-09-27T14:26:46;2.20;;;1.30;;
21611;SDS011;47005;52.292;13.452;2022-09-27T14:29:19;2.30;;;1.58;;
21611;SDS011;47005;52.292;13.452;2022-09-27T14:31:46;3.07;;;1.77;;
21611;SDS011;47005;52.292;13.452;2022-09-27T14:34:27;3.33;;;1.60;;
21611;SDS011;47005;52.292;13.452;2022-09-27T14:36:52;4.03;;;1.90;;
21611;SDS011;47005;52.292;13.452;2022-09-27T14:39:37;2.67;;;1.30;;
21611;SDS011;47005;52.292;13.452;2022-09-27T14:42:04;3.60;;;1.67;;
21611;SDS011;47005;52.292;13.452;2022-09-27T14:44:44;4.13;;;1.83;;
21611;SDS011;47005;52.292;13.452;2022-09-27T14:47:17;1.97;;;1.17;;
21611;SDS011;47005;52.292;13.452;2022-09-27T14:49:49;2.07;;;1.33;;
21611;SDS011;47005;52.292;13.452;2022-09-27T14:52:27;1.93;;;1.10;;
21611;SDS011;47005;52.292;13.452;2022-09-27T14:55:00;2.70;;;1.50;;
21611;SDS011;47005;52.292;13.452;2022-09-27T14:57:31;3.07;;;1.43;;
21611;SDS011;47005;52.292;13.452;2022-09-27T15:00:20;3.63;;;1.70;;
21611;SDS011;47005;52.292;13.452;2022-09-27T15:02:59;3.20;;;1.87;;
21611;SDS011;47005;52.292;13.452;2022-09-27T15:05:28;2.90;;;1.63;;
21611;SDS011;47005;52.292;13.452;2022-09-27T15:07:57;3.07;;;1.80;;
21611;SDS011;47005;52.292;13.452;2022-09-27T15:10:26;2.33;;;1.53;;
21611;SDS011;47005;52.292;13.452;2022-09-27T15:12:57;4.30;;;1.87;;
21611;SDS011;47005;52.292;13.452;2022-09-27T15:15:29;3.00;;;1.42;;
21611;SDS011;47005;52.292;13.452;2022-09-27T15:17:59;1.73;;;1.15;;
21611;SDS011;47005;52.292;13.452;2022-09-27T15:20:30;2.47;;;1.48;;
21611;SDS011;47005;52.292;13.452;2022-09-27T15:22:59;3.53;;;2.00;;
21611;SDS011;47005;52.292;13.452;2022-09-27T15:27:59;3.63;;;1.50;;
21611;SDS011;47005;52.292;13.452;2022-09-27T15:30:32;2.70;;;1.33;;
21611;SDS011;47005;52.292;13.452;2022-09-27T15:32:59;2.47;;;1.63;;
21611;SDS011;47005;52.292;13.452;2022-09-27T15:35:27;2.87;;;1.43;;
21611;SDS011;47005;52.292;13.452;2022-09-27T15:45:49;2.40;;;1.37;;
21611;SDS011;47005;52.292;13.452;2022-09-27T15:48:17;1.93;;;1.43;;
21611;SDS011;47005;52.292;13.452;2022-09-27T15:50:44;2.72;;;1.88;;
21611;SDS011;47005;52.292;13.452;2022-09-27T15:53:11;3.17;;;1.80;;
21611;SDS011;47005;52.292;13.452;2022-09-27T15:55:57;3.17;;;1.83;;
21611;SDS011;47005;52.292;13.452;2022-09-27T15:58:22;5.07;;;1.70;;
21611;SDS011;47005;52.292;13.452;2022-09-27T16:03:22;2.07;;;1.27;;
21611;SDS011;47005;52.292;13.452;2022-09-27T16:05:48;1.80;;;1.20;;
21611;SDS011;47005;52.292;13.452;2022-09-27T16:08:14;2.40;;;1.43;;
21611;SDS011;47005;52.292;13.452;2022-09-27T16:10:41;2.33;;;1.50;;
21611;SDS011;47005;52.292;13.452;2022-09-27T16:13:19;3.67;;;1.67;;
21611;SDS011;47005;52.292;13.452;2022-09-27T16:15:45;2.40;;;1.50;;
21611;SDS011;47005;52.292;13.452;2022-09-27T16:18:12;2.33;;;1.50;;
21611;SDS011;47005;52.292;13.452;2022-09-27T16:20:38;5.97;;;2.17;;
21611;SDS011;47005;52.292;13.452;2022-09-27T16:23:04;2.90;;;1.57;;
21611;SDS011;47005;52.292;13.452;2022-09-27T16:25:30;3.00;;;1.80;;
21611;SDS011;47005;52.292;13.452;2022-09-27T16:27:56;3.17;;;1.57;;
21611;SDS011;47005;52.292;13.452;2022-09-27T16:30:23;5.43;;;2.00;;
21611;SDS011;47005;52.292;13.452;2022-09-27T16:32:49;5.37;;;2.00;;
21611;SDS011;47005;52.292;13.452;2022-09-27T16:35:15;3.43;;;1.40;;
21611;SDS011;47005;52.292;13.452;2022-09-27T16:37:41;3.27;;;1.60;;
21611;SDS011;47005;52.292;13.452;2022-09-27T16:40:08;3.50;;;1.87;;
21611;SDS011;47005;52.292;13.452;2022-09-27T16:42:35;3.53;;;1.43;;
21611;SDS011;47005;52.292;13.452;2022-09-27T16:45:01;2.47;;;1.57;;
21611;SDS011;47005;52.292;13.452;2022-09-27T16:47:28;4.13;;;1.80;;
21611;SDS011;47005;52.292;13.452;2022-09-27T16:49:54;2.93;;;1.80;;
21611;SDS011;47005;52.292;13.452;2022-09-27T16:52:38;3.80;;;1.80;;
21611;SDS011;47005;52.292;13.452;2022-09-27T16:55:06;5.77;;;1.87;;
21611;SDS011;47005;52.292;13.452;2022-09-27T16:57:32;2.47;;;1.73;;
21611;SDS011;47005;52.292;13.452;2022-09-27T16:59:58;3.07;;;2.00;;
21611;SDS011;47005;52.292;13.452;2022-09-27T17:02:25;3.03;;;1.93;;
21611;SDS011;47005;52.292;13.452;2022-09-27T17:04:51;3.90;;;2.00;;
21611;SDS011;47005;52.292;13.452;2022-09-27T17:07:17;2.90;;;1.90;;
21611;SDS011;47005;52.292;13.452;2022-09-27T17:09:44;3.43;;;2.23;;
21611;SDS011;47005;52.292;13.452;2022-09-27T17:12:16;2.53;;;1.70;;
21611;SDS011;47005;52.292;13.452;2022-09-27T17:14:41;3.10;;;2.00;;
21611;SDS011;47005;52.292;13.452;2022-09-27T17:17:07;3.07;;;1.90;;
21611;SDS011;47005;52.292;13.452;2022-09-27T17:19:33;2.83;;;2.00;;
21611;SDS011;47005;52.292;13.452;2022-09-27T17:21:59;3.70;;;2.20;;
21611;SDS011;47005;52.292;13.452;2022-09-27T17:24:25;2.77;;;2.00;;
21611;SDS011;47005;52.292;13.452;2022-09-27T17:26:50;2.80;;;1.73;;
21611;SDS011;47005;52.292;13.452;2022-09-27T17:29:16;2.53;;;1.77;;
21611;SDS011;47005;52.292;13.452;2022-09-27T17:31:42;3.40;;;1.97;;
21611;SDS011;47005;52.292;13.452;2022-09-27T17:34:09;3.10;;;1.57;;
21611;SDS011;47005;52.292;13.452;2022-09-27T17:36:37;2.00;;;1.30;;
21611;SDS011;47005;52.292;13.452;2022-09-27T17:39:11;5.20;;;1.60;;
21611;SDS011;47005;52.292;13.452;2022-09-27T17:41:37;2.03;;;1.00;;
21611;SDS011;47005;52.292;13.452;2022-09-27T17:44:03;2.07;;;1.30;;